sensor_id;sensor_type;location;lat;lon;timestamp;temperature;humidity
35111;DHT22;21290;50.158;8.658;2023-03-01T00:00:00;-0.10;99.90
35111;DHT22;21290;50.158;8.658;2023-03-01T00:02:27;-0.10;99.90
35111;DHT22;21290;50.158;8.658;2023-03-01T00:04:54;-0.10;99.90
35111;DHT22;21290;50.158;8.658;2023-03-01T00:07:21;-0.20;99.90
35111;DHT22;21290;50.158;8.658;2023-03-01T00:09:47;-0.20;99.90
35111;DHT22;21290;50.158;8.658;2023-03-01T00:12:14;-0.20;99.90
35111;DHT22;21290;50.158;8.658;2023-03-01T00:14:41;-0.20;99.90
35111;DHT22;21290;50.158;8.658;2023-03-01T00:17:07;-0.20;99.90
35111;DHT22;21290;50.158;8.658;2023-03-01T00:19:34;-0.20;99.90
35111;DHT22;21290;50.158;8.658;2023-03-01T00:22:01;-0.20;99.90
35111;DHT22;21290;50.158;8.658;2023-03-01T00:24:27;-0.10;99.90
35111;DHT22;21290;50.158;8.658;2023-03-01T00:26:55;-0.20;99.90
35111;DHT22;21290;50.158;8.658;2023-03-01T00:29:24;-0.10;99.90
35111;DHT22;21290;50.158;8.658;2023-03-01T00:31:51;-0.20;99.90
35111;DHT22;21290;50.158;8.658;2023-03-01T00:34:18;-0.10;99.90
35111;DHT22;21290;50.158;8.658;2023-03-01T00:36:44;-0.20;99.90
35111;DHT22;21290;50.158;8.658;2023-03-01T00:39:15;-0.20;99.90
35111;DHT22;21290;50.158;8.658;2023-03-01T00:41:42;-0.20;99.90
35111;DHT22;21290;50.158;8.658;2023-03-01T00:44:09;-0.20;99.90
35111;DHT22;21290;50.158;8.658;2023-03-01T00:46:36;-0.20;99.90
35111;DHT22;21290;50.158;8.658;2023-03-01T00:49:03;-0.20;99.90
35111;DHT22;21290;50.158;8.658;2023-03-01T00:51:31;-0.20;99.90
35111;DHT22;21290;50.158;8.658;2023-03-01T00:54:00;-0.20;99.90
35111;DHT22;21290;50.158;8.658;2023-03-01T00:56:27;-0.10;99.90
35111;DHT22;21290;50.158;8.658;2023-03-01T00:58:54;-0.20;99.90
35111;DHT22;21290;50.158;8.658;2023-03-01T01:01:24;-0.20;99.90
35111;DHT22;21290;50.158;8.658;2023-03-01T01:03:56;-0.20;99.90
35111;DHT22;21290;50.158;8.658;2023-03-01T01:06:31;-0.20;99.90
35111;DHT22;21290;50.158;8.658;2023-03-01T01:08:59;-0.20;99.90
35111;DHT22;21290;50.158;8.658;2023-03-01T01:11:27;-0.20;99.90
35111;DHT22;21290;50.158;8.658;2023-03-01T01:13:56;-0.20;99.90
35111;DHT22;21290;50.158;8.658;2023-03-01T01:16:24;-0.20;99.90
35111;DHT22;21290;50.158;8.658;2023-03-01T01:18:51;-0.20;99.90
35111;DHT22;21290;50.158;8.658;2023-03-01T01:21:20;-0.20;99.90
35111;DHT22;21290;50.158;8.658;2023-03-01T01:23:49;-0.20;99.90
35111;DHT22;21290;50.158;8.658;2023-03-01T01:26:21;-0.20;99.90
35111;DHT22;21290;50.158;8.658;2023-03-01T01:28:49;-0.20;99.90
35111;DHT22;21290;50.158;8.658;2023-03-01T01:31:16;-0.20;99.90
35111;DHT22;21290;50.158;8.658;2023-03-01T01:33:43;-0.10;99.90
35111;DHT22;21290;50.158;8.658;2023-03-01T01:36:10;-0.10;99.90
35111;DHT22;21290;50.158;8.658;2023-03-01T01:38:37;-0.10;99.90
35111;DHT22;21290;50.158;8.658;2023-03-01T01:41:05;-0.10;99.90
35111;DHT22;21290;50.158;8.658;2023-03-01T01:43:38;-0.10;99.90
35111;DHT22;21290;50.158;8.658;2023-03-01T01:46:28;-0.10;99.90
35111;DHT22;21290;50.158;8.658;2023-03-01T01:49:03;-0.10;99.90
35111;DHT22;21290;50.158;8.658;2023-03-01T01:51:37;-0.10;99.90
35111;DHT22;21290;50.158;8.658;2023-03-01T01:54:10;0.00;99.90
35111;DHT22;21290;50.158;8.658;2023-03-01T01:56:40;-0.10;99.90
35111;DHT22;21290;50.158;8.658;2023-03-01T01:59:08;0.00;99.90
35111;DHT22;21290;50.158;8.658;2023-03-01T02:01:35;0.00;99.90
35111;DHT22;21290;50.158;8.658;2023-03-01T02:04:02;0.00;99.90
35111;DHT22;21290;50.158;8.658;2023-03-01T02:06:41;0.00;99.90
35111;DHT22;21290;50.158;8.658;2023-03-01T02:09:13;0.00;99.90
35111;DHT22;21290;50.158;8.658;2023-03-01T02:11:40;0.00;99.90
35111;DHT22;21290;50.158;8.658;2023-03-01T02:14:07;0.00;99.90
35111;DHT22;21290;50.158;8.658;2023-03-01T02:16:34;0.00;99.90
35111;DHT22;21290;50.158;8.658;2023-03-01T02:19:03;0.00;99.90
35111;DHT22;21290;50.158;8.658;2023-03-01T02:22:03;0.00;99.90
35111;DHT22;21290;50.158;8.658;2023-03-01T02:24:57;0.00;99.90
35111;DHT22;21290;50.158;8.658;2023-03-01T02:27:36;0.00;99.90
35111;DHT22;21290;50.158;8.658;2023-03-01T02:30:05;0.00;99.90
35111;DHT22;21290;50.158;8.658;2023-03-01T02:32:33;0.00;99.90
35111;DHT22;21290;50.158;8.658;2023-03-01T02:35:00;0.10;99.90
35111;DHT22;21290;50.158;8.658;2023-03-01T02:37:27;0.10;99.90
35111;DHT22;21290;50.158;8.658;2023-03-01T02:39:59;0.00;99.90
35111;DHT22;21290;50.158;8.658;2023-03-01T02:42:36;0.00;99.90
35111;DHT22;21290;50.158;8.658;2023-03-01T02:45:04;0.00;99.90
35111;DHT22;21290;50.158;8.658;2023-03-01T02:47:30;0.00;99.90
35111;DHT22;21290;50.158;8.658;2023-03-01T02:49:58;0.10;99.90
35111;DHT22;21290;50.158;8.658;2023-03-01T02:52:34;0.10;99.90
35111;DHT22;21290;50.158;8.658;2023-03-01T02:55:12;0.00;99.90
35111;DHT22;21290;50.158;8.658;2023-03-01T02:57:42;0.00;99.90
35111;DHT22;21290;50.158;8.658;2023-03-01T03:00:18;0.10;99.90
35111;DHT22;21290;50.158;8.658;2023-03-01T03:02:50;0.10;99.90
35111;DHT22;21290;50.158;8.658;2023-03-01T03:05:18;0.10;99.90
35111;DHT22;21290;50.158;8.658;2023-03-01T03:07:46;0.10;99.90
35111;DHT22;21290;50.158;8.658;2023-03-01T03:10:19;0.10;99.90
35111;DHT22;21290;50.158;8.658;2023-03-01T03:12:57;0.10;99.90
35111;DHT22;21290;50.158;8.658;2023-03-01T03:15:25;0.00;99.90
35111;DHT22;21290;50.158;8.658;2023-03-01T03:17:53;0.10;99.90
35111;DHT22;21290;50.158;8.658;2023-03-01T03:20:22;0.10;99.90
35111;DHT22;21290;50.158;8.658;2023-03-01T03:22:52;0.00;99.90
35111;DHT22;21290;50.158;8.658;2023-03-01T03:25:20;0.00;99.90
35111;DHT22;21290;50.158;8.658;2023-03-01T03:27:48;0.00;99.90
35111;DHT22;21290;50.158;8.658;2023-03-01T03:30:18;0.00;99.90
35111;DHT22;21290;50.158;8.658;2023-03-01T03:32:46;0.00;99.90
35111;DHT22;21290;50.158;8.658;2023-03-01T03:35:25;0.00;99.90
35111;DHT22;21290;50.158;8.658;2023-03-01T03:37:52;0.00;99.90
35111;DHT22;21290;50.158;8.658;2023-03-01T03:40:37;-0.10;99.90
35111;DHT22;21290;50.158;8.658;2023-03-01T03:43:08;-0.10;99.90
35111;DHT22;21290;50.158;8.658;2023-03-01T03:45:35;-0.10;99.90
35111;DHT22;21290;50.158;8.658;2023-03-01T03:48:04;-0.10;99.90
35111;DHT22;21290;50.158;8.658;2023-03-01T03:50:32;-0.10;99.90
35111;DHT22;21290;50.158;8.658;2023-03-01T03:53:04;-0.20;99.90
35111;DHT22;21290;50.158;8.658;2023-03-01T03:55:32;-0.20;99.90
35111;DHT22;21290;50.158;8.658;2023-03-01T03:58:01;-0.20;99.90
35111;DHT22;21290;50.158;8.658;2023-03-01T04:00:38;-0.20;99.90
35111;DHT22;21290;50.158;8.658;2023-03-01T04:03:06;-0.20;99.90
35111;DHT22;21290;50.158;8.658;2023-03-01T04:05:33;-0.20;99.90
35111;DHT22;21290;50.158;8.658;2023-03-01T04:08:00;-0.20;99.90
35111;DHT22;21290;50.158;8.658;2023-03-01T04:10:32;-0.30;99.90
35111;DHT22;21290;50.158;8.658;2023-03-01T04:12:58;-0.30;99.90
35111;DHT22;21290;50.158;8.658;2023-03-01T04:15:26;-0.30;99.90
35111;DHT22;21290;50.158;8.658;2023-03-01T04:17:54;-0.30;99.90
35111;DHT22;21290;50.158;8.658;2023-03-01T04:20:24;-0.30;99.90
35111;DHT22;21290;50.158;8.658;2023-03-01T04:22:55;-0.40;99.90
35111;DHT22;21290;50.158;8.658;2023-03-01T04:25:24;-0.40;99.90
35111;DHT22;21290;50.158;8.658;2023-03-01T04:27:50;-0.40;99.90
35111;DHT22;21290;50.158;8.658;2023-03-01T04:30:17;-0.40;99.90
35111;DHT22;21290;50.158;8.658;2023-03-01T04:32:44;-0.40;99.90
35111;DHT22;21290;50.158;8.658;2023-03-01T04:35:10;-0.40;99.90
35111;DHT22;21290;50.158;8.658;2023-03-01T04:37:37;-0.40;99.90
35111;DHT22;21290;50.158;8.658;2023-03-01T04:40:04;-0.40;99.90
35111;DHT22;21290;50.158;8.658;2023-03-01T04:42:39;-0.40;99.90
35111;DHT22;21290;50.158;8.658;2023-03-01T04:45:06;-0.40;99.90
35111;DHT22;21290;50.158;8.658;2023-03-01T04:47:40;-0.50;99.90
35111;DHT22;21290;50.158;8.658;2023-03-01T04:50:08;-0.50;99.90
35111;DHT22;21290;50.158;8.658;2023-03-01T04:52:35;-0.50;99.90
35111;DHT22;21290;50.158;8.658;2023-03-01T04:55:02;-0.50;99.90
35111;DHT22;21290;50.158;8.658;2023-03-01T04:57:30;-0.50;99.90
35111;DHT22;21290;50.158;8.658;2023-03-01T04:59:56;-0.50;99.90
35111;DHT22;21290;50.158;8.658;2023-03-01T05:02:23;-0.50;99.90
35111;DHT22;21290;50.158;8.658;2023-03-01T05:04:50;-0.50;99.90
35111;DHT22;21290;50.158;8.658;2023-03-01T05:07:17;-0.50;99.90
35111;DHT22;21290;50.158;8.658;2023-03-01T05:09:47;-0.50;99.90
35111;DHT22;21290;50.158;8.658;2023-03-01T05:12:14;-0.50;99.90
35111;DHT22;21290;50.158;8.658;2023-03-01T05:14:41;-0.50;99.90
35111;DHT22;21290;50.158;8.658;2023-03-01T05:17:08;-0.40;99.90
35111;DHT22;21290;50.158;8.658;2023-03-01T05:19:35;-0.50;99.90
35111;DHT22;21290;50.158;8.658;2023-03-01T05:22:02;-0.50;99.90
35111;DHT22;21290;50.158;8.658;2023-03-01T05:24:32;-0.50;99.90
35111;DHT22;21290;50.158;8.658;2023-03-01T05:26:59;-0.50;99.90
35111;DHT22;21290;50.158;8.658;2023-03-01T05:29:27;-0.50;99.90
35111;DHT22;21290;50.158;8.658;2023-03-01T05:31:58;-0.40;99.90
35111;DHT22;21290;50.158;8.658;2023-03-01T05:34:27;-0.40;99.90
35111;DHT22;21290;50.158;8.658;2023-03-01T05:36:54;-0.40;99.90
35111;DHT22;21290;50.158;8.658;2023-03-01T05:39:24;-0.40;99.90
35111;DHT22;21290;50.158;8.658;2023-03-01T05:41:53;-0.40;99.90
35111;DHT22;21290;50.158;8.658;2023-03-01T05:44:21;-0.40;99.90
35111;DHT22;21290;50.158;8.658;2023-03-01T05:46:47;-0.50;99.90
35111;DHT22;21290;50.158;8.658;2023-03-01T05:49:14;-0.40;99.90
35111;DHT22;21290;50.158;8.658;2023-03-01T05:51:42;-0.50;99.90
35111;DHT22;21290;50.158;8.658;2023-03-01T05:54:09;-0.40;99.90
35111;DHT22;21290;50.158;8.658;2023-03-01T05:56:36;-0.40;99.90
35111;DHT22;21290;50.158;8.658;2023-03-01T05:59:04;-0.40;99.90
35111;DHT22;21290;50.158;8.658;2023-03-01T06:01:32;-0.40;99.90
35111;DHT22;21290;50.158;8.658;2023-03-01T06:03:59;-0.40;99.90
35111;DHT22;21290;50.158;8.658;2023-03-01T06:06:26;-0.30;99.90
35111;DHT22;21290;50.158;8.658;2023-03-01T06:08:55;-0.40;99.90
35111;DHT22;21290;50.158;8.658;2023-03-01T06:11:22;-0.20;99.90
35111;DHT22;21290;50.158;8.658;2023-03-01T06:13:48;-0.10;99.90
35111;DHT22;21290;50.158;8.658;2023-03-01T06:16:15;-0.20;99.90
35111;DHT22;21290;50.158;8.658;2023-03-01T06:18:41;-0.10;99.90
35111;DHT22;21290;50.158;8.658;2023-03-01T06:21:08;-0.20;99.90
35111;DHT22;21290;50.158;8.658;2023-03-01T06:23:35;-0.20;99.90
35111;DHT22;21290;50.158;8.658;2023-03-01T06:26:06;-0.20;99.90
35111;DHT22;21290;50.158;8.658;2023-03-01T06:28:32;-0.20;99.90
35111;DHT22;21290;50.158;8.658;2023-03-01T06:30:59;-0.10;99.90
35111;DHT22;21290;50.158;8.658;2023-03-01T06:33:26;0.00;99.90
35111;DHT22;21290;50.158;8.658;2023-03-01T06:35:56;0.10;99.90
35111;DHT22;21290;50.158;8.658;2023-03-01T06:38:24;0.20;99.90
35111;DHT22;21290;50.158;8.658;2023-03-01T06:40:54;0.20;99.90
35111;DHT22;21290;50.158;8.658;2023-03-01T06:43:23;0.30;99.90
35111;DHT22;21290;50.158;8.658;2023-03-01T06:45:50;0.30;99.90
35111;DHT22;21290;50.158;8.658;2023-03-01T06:48:17;0.30;99.90
35111;DHT22;21290;50.158;8.658;2023-03-01T06:50:44;0.30;99.90
35111;DHT22;21290;50.158;8.658;2023-03-01T06:53:10;0.40;99.90
35111;DHT22;21290;50.158;8.658;2023-03-01T06:55:37;0.40;99.90
35111;DHT22;21290;50.158;8.658;2023-03-01T06:58:03;0.50;99.90
35111;DHT22;21290;50.158;8.658;2023-03-01T07:00:31;0.60;99.90
35111;DHT22;21290;50.158;8.658;2023-03-01T07:02:59;0.70;99.90
35111;DHT22;21290;50.158;8.658;2023-03-01T07:05:25;0.80;99.90
35111;DHT22;21290;50.158;8.658;2023-03-01T07:07:53;0.90;99.90
35111;DHT22;21290;50.158;8.658;2023-03-01T07:10:20;1.00;99.90
35111;DHT22;21290;50.158;8.658;2023-03-01T07:12:46;1.20;99.90
35111;DHT22;21290;50.158;8.658;2023-03-01T07:15:13;1.30;99.90
35111;DHT22;21290;50.158;8.658;2023-03-01T07:17:41;1.40;99.90
35111;DHT22;21290;50.158;8.658;2023-03-01T07:20:08;1.50;99.90
35111;DHT22;21290;50.158;8.658;2023-03-01T07:22:35;1.70;99.90
35111;DHT22;21290;50.158;8.658;2023-03-01T07:25:01;1.80;99.90
35111;DHT22;21290;50.158;8.658;2023-03-01T07:27:28;2.00;99.90
35111;DHT22;21290;50.158;8.658;2023-03-01T07:29:55;2.30;99.90
35111;DHT22;21290;50.158;8.658;2023-03-01T07:32:21;2.90;99.90
35111;DHT22;21290;50.158;8.658;2023-03-01T07:34:48;3.40;99.90
35111;DHT22;21290;50.158;8.658;2023-03-01T07:37:15;4.00;99.90
35111;DHT22;21290;50.158;8.658;2023-03-01T07:39:41;4.80;99.90
35111;DHT22;21290;50.158;8.658;2023-03-01T07:42:08;5.60;99.90
35111;DHT22;21290;50.158;8.658;2023-03-01T07:44:36;6.10;99.60
35111;DHT22;21290;50.158;8.658;2023-03-01T07:47:03;6.40;98.80
35111;DHT22;21290;50.158;8.658;2023-03-01T07:49:30;6.40;98.50
35111;DHT22;21290;50.158;8.658;2023-03-01T07:51:59;6.60;97.90
35111;DHT22;21290;50.158;8.658;2023-03-01T07:54:26;6.70;97.50
35111;DHT22;21290;50.158;8.658;2023-03-01T07:56:52;7.00;96.80
35111;DHT22;21290;50.158;8.658;2023-03-01T07:59:21;7.70;95.60
35111;DHT22;21290;50.158;8.658;2023-03-01T08:01:47;8.70;93.50
35111;DHT22;21290;50.158;8.658;2023-03-01T08:04:14;10.20;90.60
35111;DHT22;21290;50.158;8.658;2023-03-01T08:06:40;10.90;84.30
35111;DHT22;21290;50.158;8.658;2023-03-01T08:09:07;11.60;80.40
35111;DHT22;21290;50.158;8.658;2023-03-01T08:11:35;12.30;76.60
35111;DHT22;21290;50.158;8.658;2023-03-01T08:14:01;12.90;73.80
35111;DHT22;21290;50.158;8.658;2023-03-01T08:16:28;13.30;70.40
35111;DHT22;21290;50.158;8.658;2023-03-01T08:18:55;14.00;68.50
35111;DHT22;21290;50.158;8.658;2023-03-01T08:21:25;14.30;65.80
35111;DHT22;21290;50.158;8.658;2023-03-01T08:23:52;15.00;64.00
35111;DHT22;21290;50.158;8.658;2023-03-01T08:26:20;15.70;61.70
35111;DHT22;21290;50.158;8.658;2023-03-01T08:28:47;16.40;59.50
35111;DHT22;21290;50.158;8.658;2023-03-01T08:31:24;16.50;58.00
35111;DHT22;21290;50.158;8.658;2023-03-01T08:33:53;16.70;56.90
35111;DHT22;21290;50.158;8.658;2023-03-01T08:36:25;17.30;55.50
35111;DHT22;21290;50.158;8.658;2023-03-01T08:38:52;17.60;54.30
35111;DHT22;21290;50.158;8.658;2023-03-01T08:41:19;17.60;53.70
35111;DHT22;21290;50.158;8.658;2023-03-01T08:43:45;17.60;53.70
35111;DHT22;21290;50.158;8.658;2023-03-01T08:46:13;18.20;52.40
35111;DHT22;21290;50.158;8.658;2023-03-01T08:48:40;18.70;51.70
35111;DHT22;21290;50.158;8.658;2023-03-01T08:51:15;19.00;51.00
35111;DHT22;21290;50.158;8.658;2023-03-01T08:53:42;19.40;50.30
35111;DHT22;21290;50.158;8.658;2023-03-01T08:56:10;20.10;49.20
35111;DHT22;21290;50.158;8.658;2023-03-01T08:58:37;20.50;48.20
35111;DHT22;21290;50.158;8.658;2023-03-01T09:01:11;21.00;46.90
35111;DHT22;21290;50.158;8.658;2023-03-01T09:03:38;21.40;46.10
35111;DHT22;21290;50.158;8.658;2023-03-01T09:06:07;21.70;45.30
35111;DHT22;21290;50.158;8.658;2023-03-01T09:08:38;21.70;44.90
35111;DHT22;21290;50.158;8.658;2023-03-01T09:11:07;21.30;44.90
35111;DHT22;21290;50.158;8.658;2023-03-01T09:13:34;21.20;44.70
35111;DHT22;21290;50.158;8.658;2023-03-01T09:16:03;21.10;44.40
35111;DHT22;21290;50.158;8.658;2023-03-01T09:18:30;21.70;44.20
35111;DHT22;21290;50.158;8.658;2023-03-01T09:21:05;21.70;42.90
35111;DHT22;21290;50.158;8.658;2023-03-01T09:23:44;22.40;42.80
35111;DHT22;21290;50.158;8.658;2023-03-01T09:26:20;22.50;42.20
35111;DHT22;21290;50.158;8.658;2023-03-01T09:28:53;23.10;42.30
35111;DHT22;21290;50.158;8.658;2023-03-01T09:31:21;23.50;41.40
35111;DHT22;21290;50.158;8.658;2023-03-01T09:33:50;23.20;40.70
35111;DHT22;21290;50.158;8.658;2023-03-01T09:36:19;22.70;41.20
35111;DHT22;21290;50.158;8.658;2023-03-01T09:38:47;22.80;41.00
35111;DHT22;21290;50.158;8.658;2023-03-01T09:41:22;22.80;40.70
35111;DHT22;21290;50.158;8.658;2023-03-01T09:43:57;22.90;40.60
35111;DHT22;21290;50.158;8.658;2023-03-01T09:46:27;23.10;40.80
35111;DHT22;21290;50.158;8.658;2023-03-01T09:49:07;23.70;40.20
35111;DHT22;21290;50.158;8.658;2023-03-01T09:51:37;23.60;39.90
35111;DHT22;21290;50.158;8.658;2023-03-01T09:54:05;24.10;39.10
35111;DHT22;21290;50.158;8.658;2023-03-01T09:56:43;24.20;39.20
35111;DHT22;21290;50.158;8.658;2023-03-01T09:59:28;24.30;39.20
35111;DHT22;21290;50.158;8.658;2023-03-01T10:04:46;23.50;39.20
35111;DHT22;21290;50.158;8.658;2023-03-01T10:09:43;24.20;38.90
35111;DHT22;21290;50.158;8.658;2023-03-01T10:12:15;24.10;38.20
35111;DHT22;21290;50.158;8.658;2023-03-01T10:15:07;23.90;38.40
35111;DHT22;21290;50.158;8.658;2023-03-01T10:20:25;24.90;38.00
35111;DHT22;21290;50.158;8.658;2023-03-01T10:22:53;25.20;38.10
35111;DHT22;21290;50.158;8.658;2023-03-01T10:28:29;24.80;38.00
35111;DHT22;21290;50.158;8.658;2023-03-01T10:30:58;24.60;38.20
35111;DHT22;21290;50.158;8.658;2023-03-01T10:33:35;25.00;37.90
35111;DHT22;21290;50.158;8.658;2023-03-01T10:36:04;24.90;37.90
35111;DHT22;21290;50.158;8.658;2023-03-01T10:41:18;24.60;37.40
35111;DHT22;21290;50.158;8.658;2023-03-01T10:43:51;24.40;38.10
35111;DHT22;21290;50.158;8.658;2023-03-01T10:46:34;24.30;37.90
35111;DHT22;21290;50.158;8.658;2023-03-01T10:49:22;25.00;37.90
35111;DHT22;21290;50.158;8.658;2023-03-01T10:51:51;25.20;37.90
35111;DHT22;21290;50.158;8.658;2023-03-01T10:56:51;25.00;37.50
35111;DHT22;21290;50.158;8.658;2023-03-01T10:59:27;25.10;37.60
35111;DHT22;21290;50.158;8.658;2023-03-01T11:04:59;24.70;37.70
35111;DHT22;21290;50.158;8.658;2023-03-01T11:07:26;25.20;37.20
35111;DHT22;21290;50.158;8.658;2023-03-01T11:09:53;24.80;37.30
35111;DHT22;21290;50.158;8.658;2023-03-01T11:12:21;24.70;37.70
35111;DHT22;21290;50.158;8.658;2023-03-01T11:14:53;25.30;37.50
35111;DHT22;21290;50.158;8.658;2023-03-01T11:17:30;25.60;37.40
35111;DHT22;21290;50.158;8.658;2023-03-01T11:20:39;25.70;37.30
35111;DHT22;21290;50.158;8.658;2023-03-01T11:23:11;25.40;36.50
35111;DHT22;21290;50.158;8.658;2023-03-01T11:26:02;25.30;37.20
35111;DHT22;21290;50.158;8.658;2023-03-01T11:28:30;26.00;37.40
35111;DHT22;21290;50.158;8.658;2023-03-01T11:31:05;26.30;36.70
35111;DHT22;21290;50.158;8.658;2023-03-01T11:42:06;25.20;37.00
35111;DHT22;21290;50.158;8.658;2023-03-01T11:44:47;25.30;36.90
35111;DHT22;21290;50.158;8.658;2023-03-01T11:47:39;24.80;37.10
35111;DHT22;21290;50.158;8.658;2023-03-01T11:50:26;25.00;36.90
35111;DHT22;21290;50.158;8.658;2023-03-01T11:53:07;25.30;37.20
35111;DHT22;21290;50.158;8.658;2023-03-01T11:59:11;24.90;37.10
35111;DHT22;21290;50.158;8.658;2023-03-01T12:01:51;25.20;36.40
35111;DHT22;21290;50.158;8.658;2023-03-01T12:07:38;23.80;36.60
35111;DHT22;21290;50.158;8.658;2023-03-01T12:10:23;22.60;38.10
35111;DHT22;21290;50.158;8.658;2023-03-01T12:18:33;17.80;43.10
35111;DHT22;21290;50.158;8.658;2023-03-01T12:21:26;17.00;44.80
35111;DHT22;21290;50.158;8.658;2023-03-01T12:24:30;16.10;46.20
35111;DHT22;21290;50.158;8.658;2023-03-01T12:30:21;15.00;46.70
35111;DHT22;21290;50.158;8.658;2023-03-01T12:33:04;14.20;47.70
35111;DHT22;21290;50.158;8.658;2023-03-01T12:36:13;13.90;48.40
35111;DHT22;21290;50.158;8.658;2023-03-01T12:50:42;13.50;48.70
35111;DHT22;21290;50.158;8.658;2023-03-01T12:53:30;13.30;49.10
35111;DHT22;21290;50.158;8.658;2023-03-01T12:56:05;13.30;48.70
35111;DHT22;21290;50.158;8.658;2023-03-01T12:58:57;13.20;49.60
35111;DHT22;21290;50.158;8.658;2023-03-01T13:01:45;13.00;49.00
35111;DHT22;21290;50.158;8.658;2023-03-01T13:04:39;12.90;50.40
35111;DHT22;21290;50.158;8.658;2023-03-01T13:20:25;12.30;53.00
35111;DHT22;21290;50.158;8.658;2023-03-01T13:26:03;12.20;52.70
35111;DHT22;21290;50.158;8.658;2023-03-01T13:33:55;11.80;53.50
35111;DHT22;21290;50.158;8.658;2023-03-01T13:39:00;11.60;54.00
35111;DHT22;21290;50.158;8.658;2023-03-01T13:47:01;11.70;54.30
35111;DHT22;21290;50.158;8.658;2023-03-01T13:52:39;11.70;54.10
35111;DHT22;21290;50.158;8.658;2023-03-01T14:01:29;11.40;54.90
35111;DHT22;21290;50.158;8.658;2023-03-01T14:03:59;11.40;54.60
35111;DHT22;21290;50.158;8.658;2023-03-01T14:06:32;11.40;54.70
35111;DHT22;21290;50.158;8.658;2023-03-01T14:14:34;11.10;54.60
35111;DHT22;21290;50.158;8.658;2023-03-01T14:19:57;11.10;55.70
35111;DHT22;21290;50.158;8.658;2023-03-01T14:22:26;11.10;55.40
35111;DHT22;21290;50.158;8.658;2023-03-01T14:24:58;10.90;55.40
35111;DHT22;21290;50.158;8.658;2023-03-01T14:27:30;10.90;56.60
35111;DHT22;21290;50.158;8.658;2023-03-01T14:30:03;10.90;55.70
35111;DHT22;21290;50.158;8.658;2023-03-01T14:32:31;10.80;55.70
35111;DHT22;21290;50.158;8.658;2023-03-01T14:34:59;10.80;56.00
35111;DHT22;21290;50.158;8.658;2023-03-01T14:39:53;10.70;56.90
35111;DHT22;21290;50.158;8.658;2023-03-01T14:42:22;10.70;56.80
35111;DHT22;21290;50.158;8.658;2023-03-01T14:44:51;10.60;56.70
35111;DHT22;21290;50.158;8.658;2023-03-01T14:47:30;10.50;57.00
35111;DHT22;21290;50.158;8.658;2023-03-01T14:50:01;10.50;57.50
35111;DHT22;21290;50.158;8.658;2023-03-01T14:52:49;10.50;57.00
35111;DHT22;21290;50.158;8.658;2023-03-01T14:55:30;10.40;56.90
35111;DHT22;21290;50.158;8.658;2023-03-01T14:57:58;10.30;57.40
35111;DHT22;21290;50.158;8.658;2023-03-01T15:00:28;10.20;57.60
35111;DHT22;21290;50.158;8.658;2023-03-01T15:02:57;10.20;57.40
35111;DHT22;21290;50.158;8.658;2023-03-01T15:05:30;10.00;57.20
35111;DHT22;21290;50.158;8.658;2023-03-01T15:07:58;9.90;57.30
35111;DHT22;21290;50.158;8.658;2023-03-01T15:10:34;9.90;57.80
35111;DHT22;21290;50.158;8.658;2023-03-01T15:13:24;9.90;58.20
35111;DHT22;21290;50.158;8.658;2023-03-01T15:15:53;9.90;57.90
35111;DHT22;21290;50.158;8.658;2023-03-01T15:18:29;9.80;57.60
35111;DHT22;21290;50.158;8.658;2023-03-01T15:21:06;9.80;58.10
35111;DHT22;21290;50.158;8.658;2023-03-01T15:23:34;9.70;58.10
35111;DHT22;21290;50.158;8.658;2023-03-01T15:26:02;9.60;57.70
35111;DHT22;21290;50.158;8.658;2023-03-01T15:28:36;9.50;58.30
35111;DHT22;21290;50.158;8.658;2023-03-01T15:33:47;9.40;58.60
35111;DHT22;21290;50.158;8.658;2023-03-01T15:36:33;9.30;58.80
35111;DHT22;21290;50.158;8.658;2023-03-01T15:39:03;9.30;59.70
35111;DHT22;21290;50.158;8.658;2023-03-01T15:41:32;9.20;59.30
35111;DHT22;21290;50.158;8.658;2023-03-01T15:44:00;9.10;60.50
35111;DHT22;21290;50.158;8.658;2023-03-01T15:46:35;9.00;59.30
35111;DHT22;21290;50.158;8.658;2023-03-01T15:49:19;8.90;59.50
35111;DHT22;21290;50.158;8.658;2023-03-01T15:51:53;8.90;60.00
35111;DHT22;21290;50.158;8.658;2023-03-01T15:54:23;8.80;60.20
35111;DHT22;21290;50.158;8.658;2023-03-01T15:56:51;8.70;60.60
35111;DHT22;21290;50.158;8.658;2023-03-01T15:59:18;8.60;60.30
35111;DHT22;21290;50.158;8.658;2023-03-01T16:01:45;8.50;60.70
35111;DHT22;21290;50.158;8.658;2023-03-01T16:04:13;8.40;60.60
35111;DHT22;21290;50.158;8.658;2023-03-01T16:06:47;8.30;60.60
35111;DHT22;21290;50.158;8.658;2023-03-01T16:09:22;8.20;60.30
35111;DHT22;21290;50.158;8.658;2023-03-01T16:11:50;8.10;60.50
35111;DHT22;21290;50.158;8.658;2023-03-01T16:14:17;8.00;61.50
35111;DHT22;21290;50.158;8.658;2023-03-01T16:16:45;7.90;62.00
35111;DHT22;21290;50.158;8.658;2023-03-01T16:19:12;7.80;62.00
35111;DHT22;21290;50.158;8.658;2023-03-01T16:21:39;7.80;62.50
35111;DHT22;21290;50.158;8.658;2023-03-01T16:24:05;7.70;63.00
35111;DHT22;21290;50.158;8.658;2023-03-01T16:26:32;7.60;63.20
35111;DHT22;21290;50.158;8.658;2023-03-01T16:28:59;7.50;63.40
35111;DHT22;21290;50.158;8.658;2023-03-01T16:31:26;7.40;64.10
35111;DHT22;21290;50.158;8.658;2023-03-01T16:33:55;7.30;64.30
35111;DHT22;21290;50.158;8.658;2023-03-01T16:36:23;7.30;64.40
35111;DHT22;21290;50.158;8.658;2023-03-01T16:38:51;7.10;64.10
35111;DHT22;21290;50.158;8.658;2023-03-01T16:41:21;7.00;64.60
35111;DHT22;21290;50.158;8.658;2023-03-01T16:43:49;7.00;65.40
35111;DHT22;21290;50.158;8.658;2023-03-01T16:46:22;6.90;65.80
35111;DHT22;21290;50.158;8.658;2023-03-01T16:48:49;6.80;66.50
35111;DHT22;21290;50.158;8.658;2023-03-01T16:51:16;6.70;66.20
35111;DHT22;21290;50.158;8.658;2023-03-01T16:53:44;6.60;66.80
35111;DHT22;21290;50.158;8.658;2023-03-01T16:56:13;6.50;66.80
35111;DHT22;21290;50.158;8.658;2023-03-01T16:58:40;6.40;67.40
35111;DHT22;21290;50.158;8.658;2023-03-01T17:01:16;6.30;67.90
35111;DHT22;21290;50.158;8.658;2023-03-01T17:03:45;6.20;69.00
35111;DHT22;21290;50.158;8.658;2023-03-01T17:06:15;6.10;69.50
35111;DHT22;21290;50.158;8.658;2023-03-01T17:08:42;6.10;69.30
35111;DHT22;21290;50.158;8.658;2023-03-01T17:11:11;6.00;69.60
35111;DHT22;21290;50.158;8.658;2023-03-01T17:13:38;5.90;69.90
35111;DHT22;21290;50.158;8.658;2023-03-01T17:16:10;5.80;70.40
35111;DHT22;21290;50.158;8.658;2023-03-01T17:18:37;5.70;70.80
35111;DHT22;21290;50.158;8.658;2023-03-01T17:21:05;5.70;71.10
35111;DHT22;21290;50.158;8.658;2023-03-01T17:23:34;5.60;71.60
35111;DHT22;21290;50.158;8.658;2023-03-01T17:26:01;5.50;72.40
35111;DHT22;21290;50.158;8.658;2023-03-01T17:28:30;5.40;72.90
35111;DHT22;21290;50.158;8.658;2023-03-01T17:30:59;5.40;74.10
35111;DHT22;21290;50.158;8.658;2023-03-01T17:33:26;5.30;74.70
35111;DHT22;21290;50.158;8.658;2023-03-01T17:35:53;5.20;75.60
35111;DHT22;21290;50.158;8.658;2023-03-01T17:38:20;5.10;76.30
35111;DHT22;21290;50.158;8.658;2023-03-01T17:40:46;5.00;76.60
35111;DHT22;21290;50.158;8.658;2023-03-01T17:43:14;5.00;77.80
35111;DHT22;21290;50.158;8.658;2023-03-01T17:45:42;4.90;79.40